Time;durP1;ratioP1;P1;durP2;ratioP2;P2;SDS_P1;SDS_P2;PMS_P1;PMS_P2;Temp;Humidity;BMP_temperature;BMP_pressure;BME280_temperature;BME280_humidity;BME280_pressure;Samples;Min_cycle;Max_cycle;Signal;HPM_P1;HPM_P2
2023/05/26 00:00:36;;;;;;;29.70;5.37;;;6.80;99.90;;;;;;4913639;29;20098;-66
2023/05/26 00:03:03;;;;;;;22.67;4.03;;;6.80;99.90;;;;;;4925980;29;20459;-66
2023/05/26 00:05:29;;;;;;;25.00;4.40;;;6.80;99.90;;;;;;4922375;29;20047;-66
2023/05/26 00:07:56;;;;;;;21.20;3.95;;;6.70;99.90;;;;;;4929544;29;20050;-66
2023/05/26 00:10:21;;;;;;;21.50;4.80;;;6.70;99.90;;;;;;4929886;29;20055;-66
2023/05/26 00:12:47;;;;;;;26.17;4.63;;;6.70;99.90;;;;;;4930497;29;20388;-66
2023/05/26 00:15:13;;;;;;;32.33;6.47;;;6.70;99.90;;;;;;4930627;29;20381;-67
2023/05/26 00:17:38;;;;;;;28.70;6.07;;;6.70;99.90;;;;;;4929891;29;20050;-66
2023/05/26 00:20:07;;;;;;;26.20;4.13;;;6.70;99.90;;;;;;4928589;29;20043;-66
2023/05/26 00:22:36;;;;;;;30.02;5.35;;;6.60;99.90;;;;;;4928662;29;20050;-66
2023/05/26 00:25:03;;;;;;;29.77;5.00;;;6.60;99.90;;;;;;4927479;29;20047;-66
2023/05/26 00:27:29;;;;;;;29.75;4.82;;;6.60;99.90;;;;;;4900085;29;20044;-66
2023/05/26 00:29:57;;;;;;;20.73;4.88;;;6.60;99.90;;;;;;4926955;29;20043;-66
2023/05/26 00:32:24;;;;;;;25.15;4.40;;;6.60;99.90;;;;;;4913799;29;20092;-66
2023/05/26 00:34:49;;;;;;;27.60;4.75;;;6.60;99.90;;;;;;4928675;29;20141;-66
2023/05/26 00:37:15;;;;;;;28.37;4.87;;;6.70;99.90;;;;;;4915869;29;20571;-66
2023/05/26 00:39:44;;;;;;;26.40;4.33;;;6.70;99.90;;;;;;4936338;29;20416;-67
2023/05/26 00:42:11;;;;;;;27.45;4.85;;;6.70;99.90;;;;;;4920589;29;20052;-67
2023/05/26 00:44:36;;;;;;;22.83;4.32;;;6.70;99.90;;;;;;4936183;29;20047;-67
2023/05/26 00:47:02;;;;;;;27.47;4.43;;;6.80;99.90;;;;;;4927180;29;20155;-67
2023/05/26 00:49:28;;;;;;;23.92;4.53;;;6.80;99.90;;;;;;4922927;29;21586;-67
2023/05/26 00:51:55;;;;;;;29.80;5.27;;;6.80;99.90;;;;;;4924166;29;20111;-67
2023/05/26 00:54:21;;;;;;;25.08;5.18;;;6.70;99.90;;;;;;4932457;29;20290;-67
2023/05/26 00:56:47;;;;;;;32.50;5.00;;;6.80;99.90;;;;;;4933448;29;20047;-67
2023/05/26 00:59:13;;;;;;;26.00;5.05;;;6.80;99.90;;;;;;4933072;29;20044;-67
2023/05/26 01:01:39;;;;;;;31.38;4.70;;;6.80;99.90;;;;;;4935306;29;20147;-67
2023/05/26 01:04:05;;;;;;;24.20;4.43;;;6.80;99.90;;;;;;4933887;29;20119;-67
2023/05/26 01:06:31;;;;;;;24.45;4.85;;;6.90;99.90;;;;;;4926091;29;20087;-67
2023/05/26 01:08:58;;;;;;;28.07;6.17;;;6.90;99.90;;;;;;4925447;29;20043;-67
2023/05/26 01:11:44;;;;;;;27.30;6.20;;;6.90;99.90;;;;;;4934914;29;20055;-67
2023/05/26 01:14:37;;;;;;;23.42;4.78;;;6.80;99.90;;;;;;4925765;29;20039;-67
2023/05/26 01:17:17;;;;;;;23.45;4.20;;;6.80;99.90;;;;;;4932990;29;20043;-67
2023/05/26 01:19:54;;;;;;;21.40;5.03;;;6.80;99.90;;;;;;4934079;29;20052;-67
2023/05/26 01:22:38;;;;;;;33.38;4.93;;;6.80;99.90;;;;;;4935244;29;20138;-67
2023/05/26 01:25:19;;;;;;;23.30;4.63;;;6.80;99.90;;;;;;4933920;29;20406;-67
2023/05/26 01:28:00;;;;;;;28.30;5.10;;;6.70;99.90;;;;;;4910671;29;20044;-67
2023/05/26 01:30:26;;;;;;;25.55;4.45;;;6.70;99.90;;;;;;4933432;29;20050;-67
2023/05/26 01:32:51;;;;;;;25.97;4.07;;;6.80;99.90;;;;;;4934142;29;20043;-67
2023/05/26 01:35:17;;;;;;;21.80;3.90;;;6.80;99.90;;;;;;4935996;29;20058;-67
2023/05/26 01:37:45;;;;;;;26.60;4.40;;;6.80;99.90;;;;;;4935995;29;20086;-67
2023/05/26 01:40:11;;;;;;;24.77;5.05;;;6.90;99.90;;;;;;4930196;29;20047;-67
2023/05/26 01:42:42;;;;;;;30.17;4.90;;;6.90;99.90;;;;;;4930481;29;20047;-67
2023/05/26 01:45:12;;;;;;;18.75;4.07;;;6.90;99.90;;;;;;4914247;29;20108;-67
2023/05/26 01:47:40;;;;;;;30.33;5.10;;;6.90;99.90;;;;;;4924187;29;20054;-67
2023/05/26 01:50:08;;;;;;;28.10;6.10;;;7.00;99.90;;;;;;4918895;29;20040;-67
2023/05/26 01:52:37;;;;;;;28.85;4.93;;;7.00;99.90;;;;;;4922722;29;20459;-67
2023/05/26 01:55:13;;;;;;;25.33;4.45;;;6.90;99.90;;;;;;4931950;29;20050;-67
2023/05/26 01:57:42;;;;;;;27.95;4.85;;;6.90;99.90;;;;;;4913026;29;20139;-67
2023/05/26 02:00:11;;;;;;;27.13;4.80;;;6.90;99.90;;;;;;4931346;29;20051;-67
2023/05/26 02:02:37;;;;;;;30.70;5.22;;;6.90;99.90;;;;;;4933111;29;20500;-67
2023/05/26 02:05:03;;;;;;;28.97;5.47;;;6.80;99.90;;;;;;4932612;29;20086;-67
2023/05/26 02:07:29;;;;;;;25.17;4.32;;;6.80;99.90;;;;;;4930137;29;20285;-67
2023/05/26 02:09:55;;;;;;;26.03;5.00;;;6.80;99.90;;;;;;4932708;29;20042;-67
2023/05/26 02:12:21;;;;;;;26.03;5.13;;;6.80;99.90;;;;;;4935764;29;20706;-67
2023/05/26 02:14:46;;;;;;;29.37;5.60;;;6.70;99.90;;;;;;4932556;29;20516;-67
2023/05/26 02:17:13;;;;;;;26.67;5.20;;;6.70;99.90;;;;;;4932696;29;20040;-67
2023/05/26 02:19:40;;;;;;;25.25;4.65;;;6.70;99.90;;;;;;4931612;29;20525;-67
2023/05/26 02:22:06;;;;;;;22.73;4.97;;;6.70;99.90;;;;;;4927266;29;20424;-67
2023/05/26 02:24:32;;;;;;;26.97;4.50;;;6.60;99.90;;;;;;4932426;29;20055;-67
2023/05/26 02:26:57;;;;;;;25.37;4.97;;;6.60;99.90;;;;;;4909778;29;20036;-67
2023/05/26 02:29:23;;;;;;;27.23;4.23;;;6.60;99.90;;;;;;4929882;29;20126;-67
2023/05/26 02:31:49;;;;;;;29.87;4.37;;;6.50;99.90;;;;;;4929332;29;20043;-67
2023/05/26 02:34:15;;;;;;;26.67;4.07;;;6.50;99.90;;;;;;4926734;29;20679;-67
2023/05/26 02:36:41;;;;;;;23.90;4.80;;;6.40;99.90;;;;;;4934804;29;20062;-67
2023/05/26 02:39:07;;;;;;;23.92;4.45;;;6.40;99.90;;;;;;4908888;29;20312;-67
2023/05/26 02:41:33;;;;;;;22.87;4.80;;;6.40;99.90;;;;;;4916448;29;20118;-67
2023/05/26 02:43:58;;;;;;;26.40;4.43;;;6.30;99.90;;;;;;4929795;29;20511;-67
2023/05/26 02:46:24;;;;;;;26.20;4.87;;;6.30;99.90;;;;;;4922896;29;20047;-67
2023/05/26 02:48:50;;;;;;;25.63;5.20;;;6.20;99.90;;;;;;4925026;29;20047;-67
2023/05/26 02:51:15;;;;;;;22.13;4.50;;;6.20;99.90;;;;;;4930870;29;20051;-67
2023/05/26 02:53:41;;;;;;;32.57;4.57;;;6.10;99.90;;;;;;4918915;29;20050;-67
2023/05/26 02:56:07;;;;;;;23.43;4.03;;;6.10;99.90;;;;;;4913571;29;20485;-67
2023/05/26 02:58:33;;;;;;;25.93;4.17;;;6.10;99.90;;;;;;4924627;29;20078;-67
2023/05/26 03:00:59;;;;;;;24.63;3.83;;;6.10;99.90;;;;;;4931560;29;20075;-67
2023/05/26 03:03:25;;;;;;;26.80;3.95;;;6.00;99.90;;;;;;4930042;29;20131;-67
2023/05/26 03:05:51;;;;;;;26.17;5.15;;;6.00;99.90;;;;;;4930475;29;20044;-67
2023/05/26 03:08:17;;;;;;;28.77;4.70;;;6.00;99.90;;;;;;4931766;29;20494;-67
2023/05/26 03:10:43;;;;;;;23.30;4.03;;;6.00;99.90;;;;;;4930738;29;20035;-67
2023/05/26 03:13:09;;;;;;;25.90;4.00;;;6.00;99.90;;;;;;4930351;29;20099;-67
2023/05/26 03:15:36;;;;;;;22.10;4.37;;;6.00;99.90;;;;;;4925245;29;20047;-67
2023/05/26 03:18:03;;;;;;;23.38;5.00;;;5.90;99.90;;;;;;4931328;29;20288;-67
2023/05/26 03:20:29;;;;;;;31.98;4.40;;;5.90;99.90;;;;;;4925992;29;20052;-67
2023/05/26 03:22:55;;;;;;;23.17;3.80;;;5.80;99.90;;;;;;4929853;29;20131;-67
2023/05/26 03:25:21;;;;;;;22.40;3.88;;;5.80;99.90;;;;;;4927135;29;20042;-67
2023/05/26 03:27:47;;;;;;;30.73;4.83;;;5.80;99.90;;;;;;4930492;29;20039;-67
2023/05/26 03:30:12;;;;;;;28.33;4.20;;;5.70;99.90;;;;;;4913118;29;20036;-67
2023/05/26 03:32:38;;;;;;;23.77;4.20;;;5.70;99.90;;;;;;4929684;29;20546;-67
2023/05/26 03:35:04;;;;;;;29.57;4.50;;;5.70;99.90;;;;;;4929150;29;20794;-67
2023/05/26 03:37:30;;;;;;;19.38;3.70;;;5.70;99.90;;;;;;4928230;29;20051;-67
2023/05/26 03:39:57;;;;;;;28.60;5.90;;;5.70;99.90;;;;;;4914401;29;20071;-67
2023/05/26 03:42:23;;;;;;;27.27;4.95;;;5.60;99.90;;;;;;4933147;29;20130;-67
2023/05/26 03:44:49;;;;;;;23.60;4.40;;;5.60;99.90;;;;;;4913835;29;20036;-67
2023/05/26 03:47:15;;;;;;;29.55;5.05;;;5.60;99.90;;;;;;4919934;29;20090;-67
2023/05/26 03:49:40;;;;;;;26.30;4.10;;;5.60;99.90;;;;;;4917058;29;20075;-67
2023/05/26 03:52:06;;;;;;;24.07;4.03;;;5.60;99.90;;;;;;4924093;29;20040;-67
2023/05/26 03:54:32;;;;;;;28.23;4.53;;;5.70;99.90;;;;;;4925899;29;20039;-67
2023/05/26 03:56:57;;;;;;;27.37;4.20;;;5.70;99.90;;;;;;4934143;29;20111;-67
2023/05/26 03:59:23;;;;;;;25.97;4.67;;;5.70;99.90;;;;;;4928919;29;20411;-67
2023/05/26 04:01:49;;;;;;;24.63;4.00;;;5.80;99.90;;;;;;4930501;29;20377;-67
2023/05/26 04:04:15;;;;;;;26.57;5.33;;;5.90;99.90;;;;;;4928706;29;20039;-67
2023/05/26 04:06:41;;;;;;;22.53;4.70;;;6.00;99.90;;;;;;4922239;29;20074;-67
2023/05/26 04:09:07;;;;;;;28.83;4.97;;;6.10;99.90;;;;;;4925984;29;20054;-67
2023/05/26 04:11:33;;;;;;;22.77;4.55;;;6.20;99.90;;;;;;4929339;29;20043;-67
2023/05/26 04:13:59;;;;;;;33.40;5.23;;;6.30;99.90;;;;;;4929632;29;20464;-67
2023/05/26 04:16:25;;;;;;;24.70;5.80;;;6.40;99.90;;;;;;4930480;29;20310;-67
2023/05/26 04:18:50;;;;;;;29.53;5.17;;;6.40;99.90;;;;;;4921313;29;20044;-67
2023/05/26 04:21:16;;;;;;;28.93;4.50;;;6.60;99.90;;;;;;4925297;29;20047;-67
2023/05/26 04:23:42;;;;;;;26.30;4.50;;;6.70;99.90;;;;;;4927236;29;20055;-67
2023/05/26 04:26:08;;;;;;;22.43;4.60;;;6.80;99.90;;;;;;4922217;29;20188;-67
2023/05/26 04:28:34;;;;;;;27.27;5.38;;;6.90;99.90;;;;;;4924195;29;20523;-67
2023/05/26 04:31:03;;;;;;;27.20;4.35;;;6.90;99.90;;;;;;4922937;29;20130;-67
2023/05/26 04:33:29;;;;;;;22.33;4.88;;;7.10;99.90;;;;;;4925066;29;20528;-67
2023/05/26 04:35:56;;;;;;;22.83;4.78;;;7.10;99.90;;;;;;4923173;29;20497;-67
2023/05/26 04:38:22;;;;;;;20.48;3.70;;;7.20;99.90;;;;;;4932534;29;20609;-67
2023/05/26 04:40:48;;;;;;;27.00;4.57;;;7.40;99.90;;;;;;4930079;29;20083;-67
2023/05/26 04:43:14;;;;;;;26.13;4.38;;;7.70;99.90;;;;;;4920217;29;20418;-68
2023/05/26 04:45:43;;;;;;;20.90;4.57;;;7.90;99.90;;;;;;4919984;29;20044;-67
2023/05/26 04:48:09;;;;;;;20.40;4.72;;;8.10;99.90;;;;;;4915406;29;20063;-67
2023/05/26 04:50:38;;;;;;;27.23;5.03;;;8.20;99.90;;;;;;4943333;28;20128;-67
2023/05/26 04:53:05;;;;;;;24.85;4.63;;;8.30;99.90;;;;;;4926876;29;20075;-67
2023/05/26 04:55:30;;;;;;;28.55;4.70;;;8.80;99.90;;;;;;4914505;29;20135;-67
2023/05/26 04:57:56;;;;;;;18.83;4.40;;;9.60;99.90;;;;;;4929910;29;20567;-67
2023/05/26 05:00:22;;;;;;;24.87;4.00;;;10.50;99.90;;;;;;4930039;29;20594;-67
2023/05/26 05:02:48;;;;;;;19.00;4.80;;;11.10;99.60;;;;;;4920748;29;20048;-67
2023/05/26 05:05:13;;;;;;;20.07;4.13;;;11.70;96.40;;;;;;4928744;29;20071;-67
2023/05/26 05:07:39;;;;;;;25.63;4.70;;;12.20;93.70;;;;;;4912298;29;20036;-67
2023/05/26 05:10:05;;;;;;;19.52;4.40;;;12.60;91.40;;;;;;4931699;29;20241;-68
2023/05/26 05:12:32;;;;;;;27.98;4.70;;;13.00;89.90;;;;;;4931090;29;20130;-68
2023/05/26 05:14:57;;;;;;;23.70;5.20;;;13.40;88.30;;;;;;4928500;29;20044;-68
2023/05/26 05:17:23;;;;;;;18.30;3.70;;;13.70;85.70;;;;;;4926892;29;20102;-68
2023/05/26 05:19:49;;;;;;;20.17;4.33;;;13.90;84.10;;;;;;4932240;29;20048;-68
2023/05/26 05:22:14;;;;;;;18.80;4.27;;;14.20;83.70;;;;;;4924266;29;20079;-68
2023/05/26 05:24:40;;;;;;;25.30;4.87;;;14.20;81.50;;;;;;4929259;29;20043;-68
2023/05/26 05:27:06;;;;;;;20.80;4.30;;;14.20;81.00;;;;;;4916259;29;20121;-68
2023/05/26 05:29:32;;;;;;;26.27;4.73;;;14.00;81.10;;;;;;4933176;29;20039;-68
2023/05/26 05:31:57;;;;;;;18.73;3.90;;;13.90;82.00;;;;;;4928727;29;20126;-68
2023/05/26 05:34:23;;;;;;;21.33;4.50;;;13.80;82.80;;;;;;4913793;29;20050;-68
2023/05/26 05:36:49;;;;;;;15.90;3.73;;;14.00;83.60;;;;;;4929854;29;20040;-68
2023/05/26 05:39:14;;;;;;;22.13;4.60;;;14.20;82.20;;;;;;4927765;29;20035;-68
2023/05/26 05:41:40;;;;;;;23.53;4.97;;;14.60;81.40;;;;;;4930064;29;20044;-68
2023/05/26 05:44:06;;;;;;;26.33;4.97;;;14.70;79.00;;;;;;4933979;29;20579;-68
2023/05/26 05:46:31;;;;;;;23.13;4.43;;;14.90;77.20;;;;;;4923692;29;20123;-68
2023/05/26 05:48:57;;;;;;;24.33;4.20;;;14.80;77.10;;;;;;4932101;29;20083;-68
2023/05/26 05:51:23;;;;;;;25.27;5.13;;;14.50;78.30;;;;;;4929925;29;20500;-68
2023/05/26 05:53:48;;;;;;;22.03;4.97;;;14.20;79.20;;;;;;4927770;29;20044;-68
2023/05/26 05:56:14;;;;;;;25.53;4.17;;;14.00;80.00;;;;;;4931393;29;20106;-68
2023/05/26 05:58:40;;;;;;;21.43;4.57;;;13.80;80.60;;;;;;4930156;29;20047;-68
2023/05/26 06:01:07;;;;;;;23.27;4.10;;;13.50;81.20;;;;;;4913687;29;20138;-68
2023/05/26 06:03:32;;;;;;;22.97;4.83;;;13.60;80.50;;;;;;4925471;29;20040;-68
2023/05/26 06:05:58;;;;;;;19.47;4.80;;;13.70;80.40;;;;;;4926153;29;20644;-68
2023/05/26 06:08:24;;;;;;;26.17;4.73;;;13.90;80.20;;;;;;4932544;29;20098;-68
2023/05/26 06:10:49;;;;;;;17.73;4.47;;;14.40;78.60;;;;;;4933417;29;20035;-68
2023/05/26 06:13:15;;;;;;;22.73;4.53;;;14.80;76.90;;;;;;4927592;29;20047;-68
2023/05/26 06:15:41;;;;;;;30.13;4.97;;;15.00;73.30;;;;;;4924090;29;20051;-68
2023/05/26 06:18:06;;;;;;;25.73;4.73;;;15.10;74.50;;;;;;4930136;29;20048;-68
2023/05/26 06:20:32;;;;;;;18.17;3.57;;;15.30;72.70;;;;;;4932424;29;20051;-68
2023/05/26 06:22:58;;;;;;;21.23;4.63;;;15.10;73.20;;;;;;4919909;29;20900;-68
2023/05/26 06:25:23;;;;;;;17.27;3.70;;;15.10;72.80;;;;;;4932257;29;20066;-68
2023/05/26 06:27:49;;;;;;;21.53;4.40;;;15.30;71.50;;;;;;4916499;29;20092;-68
2023/05/26 06:30:15;;;;;;;17.07;4.37;;;15.30;69.50;;;;;;4932295;29;20185;-68
2023/05/26 06:32:41;;;;;;;27.03;4.40;;;15.40;69.60;;;;;;4932038;29;20272;-68
2023/05/26 06:35:07;;;;;;;22.83;3.50;;;15.40;68.90;;;;;;4919479;29;20404;-68
2023/05/26 06:37:32;;;;;;;18.63;3.83;;;15.50;67.80;;;;;;4925746;29;20510;-68
2023/05/26 06:39:58;;;;;;;20.17;3.57;;;15.40;67.40;;;;;;4929941;29;20291;-68
2023/05/26 06:42:24;;;;;;;21.87;4.07;;;15.50;67.60;;;;;;4926768;29;20054;-69
2023/05/26 06:44:51;;;;;;;19.27;4.13;;;15.50;67.00;;;;;;4929527;29;20226;-68
2023/05/26 06:47:18;;;;;;;18.47;3.47;;;15.50;67.20;;;;;;4926565;29;20374;-69
2023/05/26 06:49:44;;;;;;;13.80;3.07;;;15.40;64.40;;;;;;4916523;29;20040;-69
2023/05/26 06:52:10;;;;;;;18.40;3.90;;;15.30;64.30;;;;;;4933792;29;20302;-69
2023/05/26 06:54:36;;;;;;;18.47;3.90;;;15.10;64.80;;;;;;4928403;29;20071;-68
2023/05/26 06:57:02;;;;;;;19.90;4.27;;;15.10;66.10;;;;;;4912230;29;20386;-68
2023/05/26 06:59:28;;;;;;;19.63;4.93;;;15.10;66.80;;;;;;4928893;29;20043;-68
2023/05/26 07:01:54;;;;;;;21.17;4.17;;;14.90;65.80;;;;;;4932138;29;20363;-68
2023/05/26 07:04:20;;;;;;;23.33;4.43;;;14.80;66.10;;;;;;4930823;29;20106;-68
2023/05/26 07:06:46;;;;;;;16.57;3.40;;;14.70;67.90;;;;;;4931623;29;20295;-68
2023/05/26 07:09:12;;;;;;;20.57;4.00;;;14.60;67.30;;;;;;4915994;29;20412;-68
2023/05/26 07:11:37;;;;;;;17.40;3.50;;;14.60;68.20;;;;;;4927138;29;20040;-68
2023/05/26 07:14:03;;;;;;;18.63;3.70;;;14.40;66.00;;;;;;4925842;29;20528;-68
2023/05/26 07:16:29;;;;;;;13.67;2.83;;;14.20;65.30;;;;;;4938865;29;20047;-68
2023/05/26 07:18:54;;;;;;;14.53;3.00;;;14.00;67.00;;;;;;4933396;29;20071;-67
2023/05/26 07:21:21;;;;;;;15.00;3.13;;;13.90;66.30;;;;;;4928440;29;20134;-68
2023/05/26 07:23:48;;;;;;;16.17;2.77;;;13.90;65.20;;;;;;4930858;29;20067;-68
2023/05/26 07:26:14;;;;;;;15.30;3.03;;;13.80;65.90;;;;;;4929188;29;20280;-68
2023/05/26 07:28:41;;;;;;;13.13;2.77;;;13.80;65.70;;;;;;4925664;29;20307;-68
2023/05/26 07:31:07;;;;;;;14.53;3.23;;;13.80;65.70;;;;;;4929461;29;20059;-68
2023/05/26 07:33:32;;;;;;;13.17;2.90;;;13.80;65.90;;;;;;4929581;29;20303;-68
2023/05/26 07:35:58;;;;;;;12.17;2.97;;;13.90;66.20;;;;;;4930553;29;20039;-68
2023/05/26 07:38:24;;;;;;;13.97;3.83;;;13.90;64.80;;;;;;4926645;29;20042;-68
2023/05/26 07:40:51;;;;;;;17.23;3.60;;;13.90;64.60;;;;;;4925357;29;20094;-68
2023/05/26 07:43:17;;;;;;;14.13;2.80;;;13.90;65.20;;;;;;4928693;29;20448;-68
2023/05/26 07:45:42;;;;;;;17.50;3.67;;;14.00;65.40;;;;;;4921649;29;20292;-69
2023/05/26 07:48:08;;;;;;;14.10;2.70;;;14.00;65.10;;;;;;4920968;29;20059;-68
2023/05/26 07:50:34;;;;;;;15.50;3.07;;;14.10;64.80;;;;;;4923287;29;20035;-68
2023/05/26 07:53:00;;;;;;;11.63;2.70;;;14.20;64.60;;;;;;4928243;29;20044;-68
2023/05/26 07:55:25;;;;;;;13.30;2.63;;;14.20;63.00;;;;;;4922357;29;20051;-68
2023/05/26 07:57:51;;;;;;;14.33;3.37;;;14.20;62.00;;;;;;4922423;29;20048;-68
2023/05/26 08:00:17;;;;;;;15.33;2.97;;;14.20;63.00;;;;;;4929426;29;20051;-69
2023/05/26 08:02:43;;;;;;;11.87;2.83;;;14.30;62.20;;;;;;4928067;29;20047;-68
2023/05/26 08:05:09;;;;;;;14.57;3.13;;;14.30;60.80;;;;;;4930414;29;20287;-68
2023/05/26 08:07:35;;;;;;;13.50;2.90;;;14.30;60.70;;;;;;4920143;29;20042;-68
2023/05/26 08:10:01;;;;;;;14.43;3.17;;;14.40;61.60;;;;;;4930893;29;20047;-69
2023/05/26 08:12:26;;;;;;;13.40;2.53;;;14.40;60.90;;;;;;4928279;29;20130;-68
2023/05/26 08:14:52;;;;;;;14.50;3.00;;;14.40;60.50;;;;;;4930563;29;20886;-69
2023/05/26 08:17:18;;;;;;;18.83;3.90;;;14.50;59.80;;;;;;4926545;29;20075;-68
2023/05/26 08:19:43;;;;;;;14.00;3.50;;;14.60;61.50;;;;;;4926900;29;20082;-69
2023/05/26 08:22:09;;;;;;;13.40;3.07;;;14.60;59.30;;;;;;4930230;29;20074;-69
2023/05/26 08:24:35;;;;;;;12.13;2.60;;;14.60;59.50;;;;;;4935310;29;20201;-69
2023/05/26 08:27:01;;;;;;;18.10;3.27;;;14.70;59.20;;;;;;4930915;29;20070;-68
2023/05/26 08:29:26;;;;;;;14.80;3.00;;;14.70;59.30;;;;;;4929809;29;20035;-69
2023/05/26 08:31:53;;;;;;;10.33;2.57;;;14.70;59.70;;;;;;4929694;29;20083;-69
2023/05/26 08:34:18;;;;;;;15.13;2.80;;;14.80;59.60;;;;;;4936501;29;20105;-68
2023/05/26 08:36:45;;;;;;;18.77;3.17;;;14.80;59.60;;;;;;4931010;29;20366;-69
2023/05/26 08:39:11;;;;;;;15.67;2.83;;;14.90;60.00;;;;;;4934400;29;20043;-69
2023/05/26 08:41:47;;;;;;;10.27;2.57;;;15.00;58.80;;;;;;4931260;29;20354;-67
2023/05/26 08:44:16;;;;;;;10.07;3.13;;;15.00;59.00;;;;;;4926683;29;20500;-68
2023/05/26 08:46:45;;;;;;;15.63;2.97;;;15.00;58.80;;;;;;4927420;29;20820;-67
2023/05/26 08:49:16;;;;;;;13.87;2.90;;;15.00;59.20;;;;;;4943890;28;20290;-67
2023/05/26 08:51:46;;;;;;;15.03;3.40;;;15.10;58.20;;;;;;4924420;29;20291;-67
2023/05/26 08:54:12;;;;;;;16.00;3.37;;;15.10;58.40;;;;;;4931220;29;20331;-67
2023/05/26 08:56:38;;;;;;;13.50;2.53;;;15.10;58.40;;;;;;4914343;29;20307;-67
2023/05/26 08:59:08;;;;;;;15.43;3.57;;;15.20;58.40;;;;;;4934329;29;20185;-67
2023/05/26 09:01:34;;;;;;;11.70;2.67;;;15.30;58.90;;;;;;4920072;29;20291;-67
2023/05/26 09:04:00;;;;;;;13.40;3.03;;;15.40;58.40;;;;;;4933834;29;20323;-68
2023/05/26 09:06:26;;;;;;;18.43;3.30;;;15.50;57.50;;;;;;4931795;29;20378;-68
2023/05/26 09:08:53;;;;;;;13.80;3.10;;;15.50;58.20;;;;;;4933220;29;20757;-67
2023/05/26 09:11:21;;;;;;;17.47;4.03;;;15.50;58.10;;;;;;4935445;29;20107;-67
2023/05/26 09:13:55;;;;;;;15.63;2.80;;;15.60;57.80;;;;;;4933579;29;20359;-67
2023/05/26 09:16:25;;;;;;;15.38;3.13;;;15.70;57.60;;;;;;4916597;29;20357;-67
2023/05/26 09:18:57;;;;;;;14.57;3.10;;;15.70;57.00;;;;;;4920319;29;20044;-68
2023/05/26 09:21:23;;;;;;;14.03;3.10;;;15.70;57.80;;;;;;4918204;29;20290;-68
2023/05/26 09:23:57;;;;;;;15.10;3.60;;;15.80;58.90;;;;;;4932382;29;20304;-68
2023/05/26 09:26:31;;;;;;;17.38;3.42;;;15.80;55.80;;;;;;4914250;29;20487;-68
2023/05/26 09:28:58;;;;;;;15.57;3.38;;;15.80;56.90;;;;;;4922292;29;20154;-68
2023/05/26 09:31:24;;;;;;;12.27;2.57;;;15.90;56.30;;;;;;4926445;29;20040;-68
2023/05/26 09:33:50;;;;;;;12.07;2.47;;;15.90;56.50;;;;;;4927966;29;20346;-68
2023/05/26 09:36:16;;;;;;;12.80;3.40;;;15.90;55.50;;;;;;4928732;29;20397;-67
2023/05/26 09:38:43;;;;;;;14.90;3.27;;;16.00;55.80;;;;;;4930285;29;20291;-67
2023/05/26 09:41:09;;;;;;;14.20;3.00;;;16.00;55.60;;;;;;4909237;29;20318;-67
2023/05/26 09:43:36;;;;;;;16.47;2.87;;;16.00;55.50;;;;;;4921935;29;20716;-67
2023/05/26 09:46:07;;;;;;;14.03;3.13;;;16.00;55.60;;;;;;4912472;29;20418;-68
2023/05/26 09:48:36;;;;;;;14.63;3.17;;;15.90;55.60;;;;;;4930026;29;20295;-67
2023/05/26 09:51:03;;;;;;;12.90;3.07;;;16.00;55.50;;;;;;4929573;29;20284;-68
2023/05/26 09:53:29;;;;;;;15.47;3.20;;;16.00;54.80;;;;;;4904242;29;20299;-68
2023/05/26 09:55:59;;;;;;;15.73;3.17;;;16.00;54.90;;;;;;4930623;29;20385;-68
2023/05/26 09:58:27;;;;;;;15.07;3.07;;;16.10;56.50;;;;;;4939245;29;20067;-67
2023/05/26 10:00:54;;;;;;;11.93;2.57;;;16.30;55.10;;;;;;4909262;29;20385;-68
2023/05/26 10:03:21;;;;;;;12.43;2.97;;;16.40;54.90;;;;;;4934559;29;20594;-68
2023/05/26 10:05:48;;;;;;;11.60;2.73;;;16.40;54.90;;;;;;4933187;29;20300;-68
2023/05/26 10:08:18;;;;;;;14.43;3.40;;;16.40;55.40;;;;;;4934960;29;20298;-68
2023/05/26 10:10:44;;;;;;;18.17;3.17;;;16.50;53.80;;;;;;4940012;29;20345;-67
2023/05/26 10:13:11;;;;;;;13.50;3.67;;;16.60;54.00;;;;;;4932194;29;20663;-67
2023/05/26 10:15:37;;;;;;;11.43;3.33;;;16.60;54.90;;;;;;4910336;29;20299;-68
2023/05/26 10:18:03;;;;;;;13.77;2.97;;;16.70;55.40;;;;;;4919320;29;20299;-68
2023/05/26 10:20:30;;;;;;;12.77;2.97;;;16.70;55.00;;;;;;4932444;29;20694;-68
2023/05/26 10:23:09;;;;;;;15.10;3.10;;;16.80;55.10;;;;;;4929495;29;20796;-68
2023/05/26 10:26:00;;;;;;;12.20;3.00;;;16.90;55.30;;;;;;4929202;29;20298;-68
2023/05/26 10:28:37;;;;;;;12.90;2.80;;;17.00;53.30;;;;;;4936268;29;20323;-68
2023/05/26 10:31:03;;;;;;;14.27;2.83;;;17.00;53.50;;;;;;4933098;29;20283;-68
2023/05/26 10:33:43;;;;;;;14.50;3.07;;;16.90;54.50;;;;;;4939072;29;20778;-68
2023/05/26 10:36:16;;;;;;;15.90;2.67;;;17.00;52.80;;;;;;4933978;29;20387;-67
2023/05/26 10:38:53;;;;;;;12.37;3.43;;;17.00;53.60;;;;;;4928329;29;20350;-68
2023/05/26 10:41:34;;;;;;;13.17;2.90;;;17.00;52.30;;;;;;4939311;29;20303;-68
2023/05/26 10:44:01;;;;;;;17.23;2.83;;;17.00;54.20;;;;;;4938290;29;20295;-68
2023/05/26 10:46:43;;;;;;;17.57;3.47;;;17.10;53.80;;;;;;4935979;29;20458;-68
2023/05/26 10:49:20;;;;;;;14.83;3.00;;;17.10;53.10;;;;;;4916231;29;21077;-68
2023/05/26 10:51:51;;;;;;;12.40;3.07;;;17.00;53.10;;;;;;4935501;29;21060;-68
2023/05/26 10:54:22;;;;;;;15.37;3.70;;;17.00;54.20;;;;;;4907074;29;20850;-68
2023/05/26 10:56:50;;;;;;;17.23;3.57;;;17.00;53.60;;;;;;4927418;29;20288;-68
2023/05/26 10:59:21;;;;;;;11.77;3.00;;;17.10;53.60;;;;;;4919370;29;20295;-68
2023/05/26 11:01:52;;;;;;;9.43;2.77;;;17.10;54.20;;;;;;4919118;29;20322;-68
2023/05/26 11:04:18;;;;;;;16.07;3.60;;;17.20;54.40;;;;;;4917190;29;20630;-68
2023/05/26 11:06:52;;;;;;;17.33;4.17;;;17.20;54.10;;;;;;4929133;29;20344;-68
2023/05/26 11:09:22;;;;;;;16.83;3.57;;;17.20;54.10;;;;;;4931029;29;20325;-68
2023/05/26 11:11:53;;;;;;;15.17;3.50;;;17.20;53.00;;;;;;4940759;29;20358;-68
2023/05/26 11:14:28;;;;;;;13.17;2.97;;;17.20;54.20;;;;;;4934909;29;20282;-68
2023/05/26 11:16:57;;;;;;;;;;;17.20;53.20;;;;;;4934211;29;20299;-68
2023/05/26 11:19:28;;;;;;;13.93;3.67;;;17.30;54.00;;;;;;4932037;29;19981;-68
2023/05/26 11:21:54;;;;;;;15.33;3.17;;;17.40;54.10;;;;;;4927902;29;20318;-68
2023/05/26 11:24:22;;;;;;;14.47;3.13;;;17.60;54.40;;;;;;4930688;29;20303;-68
2023/05/26 11:26:48;;;;;;;12.67;3.33;;;17.70;52.20;;;;;;4924837;29;20043;-68
2023/05/26 11:29:14;;;;;;;17.10;3.93;;;17.60;52.10;;;;;;4923075;29;20566;-68
2023/05/26 11:31:40;;;;;;;18.90;3.67;;;17.70;53.30;;;;;;4914060;29;20355;-69
2023/05/26 11:34:05;;;;;;;13.77;3.37;;;17.70;54.10;;;;;;4908337;29;20151;-69
2023/05/26 11:36:32;;;;;;;15.33;3.47;;;17.90;53.40;;;;;;4933530;29;20039;-68
2023/05/26 11:39:00;;;;;;;17.83;3.80;;;17.90;52.30;;;;;;4932924;29;20550;-69
2023/05/26 11:41:27;;;;;;;15.77;3.83;;;17.90;53.10;;;;;;4926431;29;20315;-69
2023/05/26 11:43:53;;;;;;;20.27;4.63;;;18.10;54.10;;;;;;4932142;29;20462;-69
2023/05/26 11:46:20;;;;;;;13.90;3.60;;;18.10;51.80;;;;;;4929201;29;20382;-69
2023/05/26 11:48:46;;;;;;;13.87;3.77;;;18.10;52.40;;;;;;4926197;29;20322;-68
2023/05/26 11:51:20;;;;;;;11.27;3.70;;;18.10;52.30;;;;;;4928635;29;20888;-68
2023/05/26 11:53:47;;;;;;;16.33;3.97;;;18.20;52.50;;;;;;4929429;29;20299;-69
2023/05/26 11:56:14;;;;;;;15.53;3.83;;;18.30;52.30;;;;;;4925305;29;20296;-69
2023/05/26 11:58:46;;;;;;;20.03;3.77;;;18.40;52.30;;;;;;4925746;29;20605;-69
2023/05/26 12:01:13;;;;;;;17.33;4.43;;;18.30;51.30;;;;;;4921953;29;20291;-69
2023/05/26 12:03:41;;;;;;;18.07;4.30;;;18.20;51.60;;;;;;4930004;29;20307;-69
2023/05/26 12:06:15;;;;;;;18.43;4.10;;;18.10;52.60;;;;;;4930507;29;20780;-69
2023/05/26 12:08:45;;;;;;;19.00;4.22;;;18.00;52.40;;;;;;4929715;29;20330;-68
2023/05/26 12:11:14;;;;;;;17.60;4.23;;;18.10;53.70;;;;;;4922239;29;20051;-69
2023/05/26 12:13:39;;;;;;;19.33;4.77;;;18.10;51.80;;;;;;4925354;29;20287;-68
2023/05/26 12:16:16;;;;;;;17.83;4.30;;;18.10;53.20;;;;;;4928292;29;20870;-68
2023/05/26 12:18:43;;;;;;;17.17;4.23;;;18.10;53.80;;;;;;4928160;29;20040;-68
2023/05/26 12:21:10;;;;;;;17.50;3.80;;;18.20;52.20;;;;;;4923488;29;20318;-68
2023/05/26 12:23:36;;;;;;;15.83;3.57;;;18.30;51.80;;;;;;4901936;29;20382;-68
2023/05/26 12:26:16;;;;;;;16.83;4.00;;;18.30;52.70;;;;;;4929557;29;20315;-69
2023/05/26 12:28:43;;;;;;;15.43;3.90;;;18.50;52.10;;;;;;4934925;29;20325;-68
2023/05/26 12:31:09;;;;;;;14.90;3.53;;;18.60;51.40;;;;;;4936224;29;20371;-68
2023/05/26 12:33:35;;;;;;;18.37;3.77;;;18.40;50.80;;;;;;4935961;29;20287;-68
2023/05/26 12:36:01;;;;;;;15.00;3.70;;;18.20;50.70;;;;;;4933450;29;20295;-69
2023/05/26 12:38:27;;;;;;;11.27;3.47;;;18.10;52.40;;;;;;4933745;29;20337;-68
2023/05/26 12:40:53;;;;;;;16.27;3.73;;;18.20;51.70;;;;;;4929895;29;20044;-68